Time;durP1;ratioP1;P1;durP2;ratioP2;P2;SDS_P1;SDS_P2;PMS_P1;PMS_P2;Temp;Humidity;BMP_temperature;BMP_pressure;BME280_temperature;BME280_humidity;BME280_pressure;Samples;Min_cycle;Max_cycle;Signal;HPM_P1;HPM_P2
2023/01/21 00:01:01;;;;;;;1.27;1.20;;;20.60;36.60;;;;;;5055175;28;20144;-62
2023/01/21 00:03:28;;;;;;;1.42;1.33;;;20.60;36.60;;;;;;5055274;28;20049;-62
2023/01/21 00:05:57;;;;;;;1.42;1.33;;;20.60;36.60;;;;;;5054545;28;20076;-63
2023/01/21 00:08:25;;;;;;;1.65;1.35;;;20.60;36.60;;;;;;5054888;28;20131;-63
2023/01/21 00:10:53;;;;;;;1.75;1.65;;;20.60;36.60;;;;;;5054290;28;20080;-63
2023/01/21 00:13:20;;;;;;;1.33;1.20;;;20.60;36.60;;;;;;5053909;28;20128;-62
2023/01/21 00:15:47;;;;;;;2.78;1.80;;;20.50;36.60;;;;;;5054675;28;20091;-62
2023/01/21 00:18:17;;;;;;;1.50;1.23;;;20.60;36.60;;;;;;5055281;28;20053;-62
2023/01/21 00:20:45;;;;;;;1.42;1.33;;;20.50;37.10;;;;;;5054844;28;20408;-62
2023/01/21 00:23:12;;;;;;;1.67;1.25;;;20.50;36.50;;;;;;5054654;28;20049;-63
2023/01/21 00:25:39;;;;;;;2.08;1.90;;;20.50;36.50;;;;;;5054548;28;20092;-62
2023/01/21 00:28:06;;;;;;;1.40;1.30;;;20.50;36.50;;;;;;5054647;28;20120;-63
2023/01/21 00:30:35;;;;;;;3.22;1.63;;;20.50;36.50;;;;;;5054184;28;20127;-63
2023/01/21 00:33:03;;;;;;;1.40;1.33;;;20.50;36.60;;;;;;5054590;28;20052;-62
2023/01/21 00:35:30;;;;;;;1.55;1.27;;;20.50;36.50;;;;;;5054252;28;20580;-62
2023/01/21 00:37:57;;;;;;;1.40;1.20;;;20.50;36.60;;;;;;5054995;28;20049;-63
2023/01/21 00:40:26;;;;;;;2.10;1.25;;;20.50;36.50;;;;;;5052879;28;20049;-63
2023/01/21 00:42:53;;;;;;;1.80;1.20;;;20.50;36.50;;;;;;5054523;28;20048;-62
2023/01/21 00:45:20;;;;;;;1.50;1.40;;;20.50;36.60;;;;;;5054492;28;20518;-62
2023/01/21 00:47:47;;;;;;;1.75;1.25;;;20.50;36.60;;;;;;5054207;28;20081;-62
2023/01/21 00:50:14;;;;;;;1.77;1.50;;;20.50;36.60;;;;;;5054017;28;20154;-63
2023/01/21 00:52:42;;;;;;;1.10;1.10;;;20.50;36.60;;;;;;5054398;28;20386;-62
2023/01/21 00:55:09;;;;;;;1.30;1.15;;;20.60;36.60;;;;;;5053947;28;20496;-62
2023/01/21 00:57:36;;;;;;;1.67;1.58;;;20.50;36.50;;;;;;5054336;28;20056;-62
2023/01/21 01:00:04;;;;;;;1.30;1.20;;;20.50;36.50;;;;;;5054031;28;20041;-63
2023/01/21 01:02:31;;;;;;;1.35;1.25;;;20.60;36.60;;;;;;5054408;28;20062;-63
2023/01/21 01:04:59;;;;;;;1.25;1.15;;;20.60;36.60;;;;;;5053974;28;20063;-63
2023/01/21 01:07:26;;;;;;;1.35;1.23;;;20.50;36.50;;;;;;5053966;28;20124;-63
2023/01/21 01:09:53;;;;;;;2.30;2.10;;;20.50;36.50;;;;;;5052295;28;20048;-62
2023/01/21 01:12:20;;;;;;;3.20;1.55;;;20.60;36.50;;;;;;5053618;28;20412;-62
2023/01/21 01:14:47;;;;;;;1.30;1.20;;;20.50;36.50;;;;;;5053881;28;20049;-62
2023/01/21 01:17:14;;;;;;;1.52;1.30;;;20.50;36.40;;;;;;5053826;28;20136;-63
2023/01/21 01:19:41;;;;;;;1.55;1.45;;;20.50;36.40;;;;;;5054020;28;20148;-62
2023/01/21 01:22:08;;;;;;;2.70;1.23;;;20.50;36.40;;;;;;5053031;28;20115;-63
2023/01/21 01:24:35;;;;;;;1.65;1.55;;;20.50;36.40;;;;;;5054044;28;20048;-62
2023/01/21 01:27:03;;;;;;;1.98;1.13;;;20.50;36.40;;;;;;5053330;28;20132;-62
2023/01/21 01:29:30;;;;;;;1.45;1.30;;;20.50;36.40;;;;;;5052698;28;20133;-62
2023/01/21 01:31:57;;;;;;;1.17;0.98;;;20.50;36.40;;;;;;5053664;28;20072;-62
2023/01/21 01:34:24;;;;;;;1.30;1.20;;;20.50;36.50;;;;;;5053814;28;20044;-62
2023/01/21 01:36:51;;;;;;;1.50;1.15;;;20.50;36.50;;;;;;5053177;28;20243;-62
2023/01/21 01:39:18;;;;;;;1.40;1.30;;;20.50;36.50;;;;;;5053549;28;20484;-62
2023/01/21 01:41:45;;;;;;;1.63;1.52;;;20.50;36.50;;;;;;5052990;28;20053;-62
2023/01/21 01:44:52;;;;;;;1.27;1.02;;;20.50;36.50;;;;;;5053016;28;20048;-63
2023/01/21 01:47:21;;;;;;;1.45;1.27;;;20.50;37.00;;;;;;5051525;28;20064;-62
2023/01/21 01:49:49;;;;;;;1.40;1.25;;;20.50;36.50;;;;;;5053308;28;20044;-62
2023/01/21 01:52:17;;;;;;;1.65;1.30;;;20.50;36.50;;;;;;5053176;28;20088;-62
2023/01/21 01:54:48;;;;;;;1.48;1.23;;;20.40;36.40;;;;;;5053121;28;20048;-62
2023/01/21 01:57:20;;;;;;;1.30;1.20;;;20.50;36.50;;;;;;5052997;28;20103;-62
2023/01/21 01:59:48;;;;;;;1.92;1.30;;;20.50;36.50;;;;;;5053441;28;20094;-62
2023/01/21 02:02:18;;;;;;;1.33;1.20;;;20.40;36.40;;;;;;5052661;28;20095;-63
2023/01/21 02:04:53;;;;;;;1.55;1.45;;;20.40;36.40;;;;;;5052937;28;20045;-62
2023/01/21 02:07:23;;;;;;;1.67;1.45;;;20.40;36.40;;;;;;5052479;28;20055;-62
2023/01/21 02:09:52;;;;;;;1.33;1.17;;;20.40;36.40;;;;;;5052391;28;20098;-62
2023/01/21 02:12:20;;;;;;;2.05;1.88;;;20.40;36.40;;;;;;5053089;28;20440;-63
2023/01/21 02:14:47;;;;;;;1.23;1.13;;;20.40;36.40;;;;;;5053117;28;20048;-63
2023/01/21 02:17:41;;;;;;;1.15;0.95;;;20.40;36.40;;;;;;5052867;28;20493;-62
2023/01/21 02:20:41;;;;;;;1.23;1.10;;;20.40;36.40;;;;;;5052824;28;20049;-62
2023/01/21 02:23:18;;;;;;;;;;;20.40;36.40;;;;;;5052279;28;20049;-63
2023/01/21 02:26:06;;;;;;;1.30;1.20;;;20.40;36.40;;;;;;5052838;28;19927;-62
2023/01/21 02:28:55;;;;;;;1.35;1.10;;;20.40;36.50;;;;;;5052684;28;20076;-63
2023/01/21 02:32:02;;;;;;;1.05;1.02;;;20.40;36.50;;;;;;5052556;28;20095;-63
2023/01/21 02:34:45;;;;;;;1.92;1.52;;;20.40;36.50;;;;;;5052995;28;20045;-63
2023/01/21 02:37:39;;;;;;;1.23;1.13;;;20.40;36.50;;;;;;5052732;28;20092;-62
2023/01/21 02:40:18;;;;;;;1.40;1.13;;;20.40;36.50;;;;;;5052846;28;20560;-62
2023/01/21 02:42:55;;;;;;;1.25;1.15;;;20.40;36.50;;;;;;5052723;28;20047;-63
2023/01/21 02:45:46;;;;;;;1.40;1.30;;;20.40;36.50;;;;;;5052126;28;20051;-63
2023/01/21 02:48:19;;;;;;;1.85;1.30;;;20.40;36.50;;;;;;5051483;28;20096;-62
2023/01/21 02:50:53;;;;;;;2.05;1.23;;;20.40;36.50;;;;;;5052636;28;20041;-62
2023/01/21 02:53:26;;;;;;;1.42;1.23;;;20.40;36.50;;;;;;5052477;28;20051;-63
2023/01/21 02:55:54;;;;;;;1.08;1.05;;;20.40;36.50;;;;;;5055497;28;20049;-62
2023/01/21 02:58:27;;;;;;;1.27;1.13;;;20.40;36.50;;;;;;5056560;28;20072;-63
2023/01/21 03:01:27;;;;;;;1.08;0.93;;;20.40;36.50;;;;;;5056538;28;20136;-62
2023/01/21 03:04:19;;;;;;;1.27;1.10;;;20.40;36.50;;;;;;5055353;28;20056;-62
2023/01/21 03:07:06;;;;;;;0.95;0.80;;;20.40;36.50;;;;;;5056439;28;20079;-62
2023/01/21 03:09:34;;;;;;;1.33;1.23;;;20.40;36.50;;;;;;5055104;28;20080;-63
2023/01/21 03:12:20;;;;;;;1.40;1.30;;;20.40;36.50;;;;;;5055854;28;20140;-62
2023/01/21 03:18:07;;;;;;;1.30;1.20;;;20.40;36.50;;;;;;5056452;28;20119;-62
2023/01/21 03:20:42;;;;;;;1.02;1.00;;;20.40;36.50;;;;;;5055903;28;20437;-63
2023/01/21 03:23:19;;;;;;;1.35;1.25;;;20.40;36.40;;;;;;5056141;28;20053;-63
2023/01/21 03:25:47;;;;;;;1.42;1.25;;;20.40;36.40;;;;;;5055608;28;20059;-63
2023/01/21 03:28:20;;;;;;;1.65;1.15;;;20.40;36.40;;;;;;5056126;28;20124;-62
2023/01/21 03:30:56;;;;;;;1.52;1.27;;;20.40;36.40;;;;;;5055691;28;20049;-62
2023/01/21 03:33:24;;;;;;;1.25;1.15;;;20.40;36.40;;;;;;5055895;28;20492;-62
2023/01/21 03:35:54;;;;;;;1.38;1.27;;;20.40;36.40;;;;;;5055929;28;20041;-62
2023/01/21 03:38:29;;;;;;;1.35;1.20;;;20.40;36.40;;;;;;5055740;28;20132;-62
2023/01/21 03:41:13;;;;;;;1.45;1.35;;;20.40;36.40;;;;;;5054684;28;20071;-62
2023/01/21 03:43:40;;;;;;;1.30;1.20;;;20.40;36.40;;;;;;5055643;28;20052;-62
2023/01/21 03:46:38;;;;;;;1.50;1.40;;;20.40;36.40;;;;;;5055537;28;20059;-62
2023/01/21 03:49:15;;;;;;;1.70;1.60;;;20.40;36.40;;;;;;5055575;28;20145;-62
2023/01/21 03:51:48;;;;;;;1.42;1.33;;;20.40;36.40;;;;;;5055228;28;20053;-62
2023/01/21 03:54:15;;;;;;;1.30;1.20;;;20.40;36.40;;;;;;5055034;28;20128;-63
2023/01/21 03:56:43;;;;;;;2.30;1.42;;;20.40;36.40;;;;;;5055172;28;20162;-62
2023/01/21 03:59:10;;;;;;;1.20;1.10;;;20.40;36.40;;;;;;5055266;28;20045;-63
2023/01/21 04:01:38;;;;;;;1.38;1.13;;;20.40;36.40;;;;;;5055135;28;20456;-63
2023/01/21 04:04:06;;;;;;;1.40;1.27;;;20.40;36.40;;;;;;5055214;28;20041;-63
2023/01/21 04:06:34;;;;;;;1.30;1.20;;;20.40;36.40;;;;;;5054956;28;20076;-63
2023/01/21 04:09:03;;;;;;;1.92;1.23;;;20.40;36.40;;;;;;5054944;28;20088;-63
2023/01/21 04:11:31;;;;;;;1.25;1.15;;;20.40;36.40;;;;;;5055098;28;20077;-63
2023/01/21 04:13:58;;;;;;;1.20;1.00;;;20.40;36.50;;;;;;5055050;28;20060;-62
2023/01/21 04:16:25;;;;;;;1.95;1.15;;;20.40;36.40;;;;;;5054718;28;20059;-62
2023/01/21 04:18:52;;;;;;;1.83;1.50;;;20.40;36.40;;;;;;5054952;28;20524;-62
2023/01/21 04:21:20;;;;;;;1.20;1.10;;;20.40;36.40;;;;;;5055152;28;20099;-62
2023/01/21 04:23:47;;;;;;;2.38;1.58;;;20.40;36.40;;;;;;5054972;28;20131;-63
2023/01/21 04:26:15;;;;;;;1.50;1.10;;;20.40;36.50;;;;;;5054577;28;20128;-63
2023/01/21 04:28:42;;;;;;;1.20;1.10;;;20.40;36.40;;;;;;5054454;28;20091;-63
2023/01/21 04:31:09;;;;;;;1.63;1.13;;;20.30;36.40;;;;;;5054157;28;20227;-63
2023/01/21 04:33:36;;;;;;;1.92;1.52;;;20.30;36.40;;;;;;5054668;28;20056;-63
2023/01/21 04:36:04;;;;;;;1.20;1.10;;;20.30;36.40;;;;;;5053614;28;20128;-63
2023/01/21 04:38:31;;;;;;;1.20;1.10;;;20.40;36.40;;;;;;5054728;28;20063;-62
2023/01/21 04:40:58;;;;;;;1.10;1.00;;;20.30;36.40;;;;;;5054555;28;20516;-62
2023/01/21 04:43:25;;;;;;;1.50;1.17;;;20.30;36.40;;;;;;5054480;28;20132;-62
2023/01/21 04:45:52;;;;;;;1.40;1.30;;;20.40;36.50;;;;;;5054348;28;20132;-62
2023/01/21 04:48:19;;;;;;;1.00;1.00;;;20.30;36.40;;;;;;5053978;28;20082;-63
2023/01/21 04:50:47;;;;;;;1.58;1.48;;;20.30;36.40;;;;;;5054057;28;20211;-63
2023/01/21 04:53:14;;;;;;;1.10;1.00;;;20.30;36.40;;;;;;5054037;28;20045;-62
2023/01/21 04:55:41;;;;;;;0.90;0.90;;;20.30;36.40;;;;;;5052664;28;20291;-62
2023/01/21 04:58:08;;;;;;;1.35;1.25;;;20.30;36.40;;;;;;5053366;28;20080;-62
2023/01/21 05:00:35;;;;;;;1.48;1.10;;;20.30;36.40;;;;;;5054174;28;20041;-62
2023/01/21 05:03:02;;;;;;;1.50;1.40;;;20.30;36.40;;;;;;5053915;28;20084;-62
2023/01/21 05:05:30;;;;;;;1.13;1.02;;;20.40;36.50;;;;;;5054102;28;20128;-62
2023/01/21 05:07:57;;;;;;;1.23;1.10;;;20.40;36.50;;;;;;5053843;28;20045;-62
2023/01/21 05:10:24;;;;;;;1.23;1.10;;;20.40;36.50;;;;;;5053548;28;20488;-62
2023/01/21 05:12:51;;;;;;;1.08;1.00;;;20.40;36.50;;;;;;5053840;28;20132;-62
2023/01/21 05:15:18;;;;;;;1.30;1.20;;;20.40;36.50;;;;;;5053912;28;20067;-62
2023/01/21 05:17:45;;;;;;;1.33;1.23;;;20.40;36.50;;;;;;5052543;28;20095;-63
2023/01/21 05:20:12;;;;;;;1.30;1.20;;;20.40;36.50;;;;;;5053605;28;20045;-62
2023/01/21 05:22:40;;;;;;;1.23;1.15;;;20.40;36.50;;;;;;5053663;28;20451;-64
2023/01/21 05:25:07;;;;;;;1.23;1.10;;;20.40;36.50;;;;;;5053323;28;20048;-62
2023/01/21 05:27:34;;;;;;;1.60;1.50;;;20.40;36.40;;;;;;5053762;28;20085;-62
2023/01/21 05:30:02;;;;;;;1.65;1.55;;;20.40;36.40;;;;;;5053401;28;20059;-62
2023/01/21 05:32:29;;;;;;;1.38;1.27;;;20.40;36.40;;;;;;5052455;28;20131;-62
2023/01/21 05:34:56;;;;;;;1.63;1.40;;;20.40;36.40;;;;;;5053412;28;20067;-62
2023/01/21 05:37:23;;;;;;;1.75;1.42;;;20.40;36.20;;;;;;5053271;28;20059;-62
2023/01/21 05:39:50;;;;;;;1.60;1.48;;;20.40;36.00;;;;;;5051414;28;20588;-62
2023/01/21 05:42:17;;;;;;;2.72;1.67;;;20.40;35.90;;;;;;5053656;28;20049;-62
2023/01/21 05:44:44;;;;;;;2.30;2.05;;;20.30;35.70;;;;;;5053256;28;20127;-63
2023/01/21 05:47:12;;;;;;;1.88;1.65;;;20.30;35.70;;;;;;5053176;28;20053;-62
2023/01/21 05:49:39;;;;;;;2.03;1.85;;;20.30;35.70;;;;;;5053071;28;20576;-62
2023/01/21 05:52:06;;;;;;;2.38;2.10;;;20.30;35.70;;;;;;5053061;28;20141;-62
2023/01/21 05:54:33;;;;;;;2.22;1.67;;;20.30;35.70;;;;;;5052769;28;20049;-62
2023/01/21 05:57:00;;;;;;;2.33;2.10;;;20.30;35.80;;;;;;5052739;28;20084;-62
2023/01/21 05:59:27;;;;;;;1.52;1.42;;;20.30;35.80;;;;;;5053099;28;20075;-62
2023/01/21 06:01:54;;;;;;;2.10;1.90;;;20.30;35.70;;;;;;5052992;28;20476;-62
2023/01/21 06:04:27;;;;;;;2.00;1.80;;;20.30;35.70;;;;;;5055260;28;20051;-66
2023/01/21 06:06:54;;;;;;;2.10;1.90;;;20.30;35.80;;;;;;5056463;28;20081;-66
2023/01/21 06:09:21;;;;;;;2.03;1.63;;;20.30;35.80;;;;;;5055857;28;20131;-66
2023/01/21 06:11:48;;;;;;;2.10;1.90;;;20.30;35.80;;;;;;5053732;28;20394;-67
2023/01/21 06:14:16;;;;;;;2.20;1.95;;;20.30;35.80;;;;;;5055171;28;20063;-66
2023/01/21 06:16:43;;;;;;;2.00;1.77;;;20.30;35.80;;;;;;5055903;28;20162;-66
2023/01/21 06:19:10;;;;;;;2.58;1.88;;;20.40;35.90;;;;;;5056070;28;20577;-66
2023/01/21 06:21:37;;;;;;;2.08;1.88;;;20.40;35.80;;;;;;5056130;28;20049;-66
2023/01/21 06:24:04;;;;;;;2.38;2.17;;;20.40;35.80;;;;;;5056142;28;20045;-66
2023/01/21 06:26:32;;;;;;;2.53;2.00;;;20.40;35.70;;;;;;5055080;28;20048;-66
2023/01/21 06:29:00;;;;;;;2.28;1.88;;;20.40;35.70;;;;;;5058061;28;20072;-66
2023/01/21 06:31:27;;;;;;;1.88;1.77;;;20.40;35.60;;;;;;5059937;28;20045;-66
2023/01/21 06:33:54;;;;;;;2.40;1.73;;;20.40;35.60;;;;;;5060466;28;20045;-66
2023/01/21 06:36:21;;;;;;;2.67;2.17;;;20.50;35.60;;;;;;5059032;28;20081;-66
2023/01/21 06:38:48;;;;;;;2.28;2.08;;;20.50;35.60;;;;;;5060099;28;20123;-66
2023/01/21 06:41:16;;;;;;;2.75;2.03;;;20.50;35.50;;;;;;5059638;28;20041;-66
2023/01/21 06:43:43;;;;;;;1.92;1.60;;;20.50;35.40;;;;;;5060197;28;20084;-66
2023/01/21 06:46:10;;;;;;;2.92;2.28;;;20.50;35.40;;;;;;5059812;28;20133;-66
2023/01/21 06:48:37;;;;;;;2.10;1.90;;;20.60;35.40;;;;;;5060017;28;20049;-66
2023/01/21 06:51:04;;;;;;;2.10;1.92;;;20.60;35.30;;;;;;5059923;28;20099;-66
2023/01/21 06:53:31;;;;;;;2.97;2.10;;;20.60;35.30;;;;;;5060135;28;20076;-66
2023/01/21 06:55:59;;;;;;;3.15;2.55;;;20.60;35.20;;;;;;5059943;28;20201;-66
2023/01/21 06:58:26;;;;;;;3.53;1.90;;;20.60;35.20;;;;;;5059623;28;20390;-66
2023/01/21 07:00:55;;;;;;;3.58;2.45;;;20.60;35.10;;;;;;5058446;28;20076;-67
2023/01/21 07:03:22;;;;;;;2.65;2.17;;;20.70;35.10;;;;;;5058521;28;20057;-66
2023/01/21 07:05:50;;;;;;;2.25;2.05;;;20.70;35.10;;;;;;5058856;28;20457;-66
2023/01/21 07:08:17;;;;;;;2.67;2.30;;;20.70;35.10;;;;;;5058207;28;20045;-66
2023/01/21 07:10:44;;;;;;;2.60;2.17;;;20.70;35.00;;;;;;5058966;28;20131;-66
2023/01/21 07:13:13;;;;;;;2.38;1.85;;;20.70;35.00;;;;;;5059153;28;20083;-66
2023/01/21 07:15:40;;;;;;;2.85;2.10;;;20.70;34.90;;;;;;5058414;28;20053;-66
2023/01/21 07:18:07;;;;;;;3.15;2.58;;;20.70;34.90;;;;;;5058975;28;20500;-66
2023/01/21 07:20:35;;;;;;;2.58;2.10;;;20.70;34.80;;;;;;5058244;28;20080;-66
2023/01/21 07:23:03;;;;;;;2.78;2.53;;;20.70;34.80;;;;;;5058493;28;20122;-66
2023/01/21 07:25:31;;;;;;;3.13;2.47;;;20.80;34.70;;;;;;5057443;28;20485;-66
2023/01/21 07:27:58;;;;;;;3.08;2.30;;;20.80;34.70;;;;;;5059103;28;20166;-66
2023/01/21 07:30:25;;;;;;;4.00;2.47;;;20.80;34.70;;;;;;5059204;28;20104;-67
2023/01/21 07:32:52;;;;;;;2.95;2.22;;;20.80;34.60;;;;;;5059076;28;20098;-66
2023/01/21 07:35:19;;;;;;;2.65;2.38;;;20.80;34.60;;;;;;5057636;28;20147;-66
2023/01/21 07:37:47;;;;;;;3.25;2.28;;;20.80;34.60;;;;;;5058664;28;20041;-66
2023/01/21 07:40:14;;;;;;;2.47;2.20;;;20.90;34.50;;;;;;5058209;28;20087;-66
2023/01/21 07:42:41;;;;;;;3.42;2.97;;;20.90;34.50;;;;;;5057658;28;20053;-66
2023/01/21 07:45:08;;;;;;;2.40;2.20;;;20.90;34.40;;;;;;5059284;28;20068;-66
2023/01/21 07:47:36;;;;;;;5.47;2.80;;;20.90;34.40;;;;;;5058319;28;20080;-66
2023/01/21 07:50:07;;;;;;;3.05;2.50;;;20.90;34.30;;;;;;5058480;28;20098;-67
2023/01/21 07:52:34;;;;;;;3.20;2.38;;;20.90;34.20;;;;;;5058160;28;20048;-66
2023/01/21 07:55:02;;;;;;;2.45;2.25;;;21.00;34.20;;;;;;5058692;28;20084;-66
2023/01/21 07:57:29;;;;;;;5.50;3.33;;;20.90;34.10;;;;;;5058614;28;20096;-67
2023/01/21 07:59:56;;;;;;;3.08;2.47;;;21.00;34.10;;;;;;5058835;28;20437;-66
2023/01/21 08:02:23;;;;;;;3.03;2.72;;;21.00;34.60;;;;;;5058947;28;20124;-67
2023/01/21 08:04:51;;;;;;;3.15;2.83;;;21.00;34.00;;;;;;5058466;28;20051;-67
2023/01/21 08:07:18;;;;;;;2.75;2.47;;;21.00;33.90;;;;;;5058164;28;20051;-66
2023/01/21 08:09:45;;;;;;;3.95;2.83;;;21.00;33.90;;;;;;5058279;28;20091;-66
2023/01/21 08:12:12;;;;;;;2.50;2.30;;;21.10;33.90;;;;;;5057551;28;20048;-67
2023/01/21 08:14:39;;;;;;;3.83;3.20;;;21.10;33.90;;;;;;5056736;28;20488;-66
2023/01/21 08:17:07;;;;;;;3.08;2.70;;;21.10;33.90;;;;;;5058276;28;20045;-66
2023/01/21 08:19:34;;;;;;;2.80;2.60;;;21.10;33.80;;;;;;5058252;28;20131;-66
2023/01/21 08:22:01;;;;;;;3.00;2.70;;;21.10;33.80;;;;;;5057174;28;20120;-66
2023/01/21 08:24:28;;;;;;;2.92;2.70;;;21.10;33.80;;;;;;5056456;28;20049;-66
2023/01/21 08:26:59;;;;;;;3.75;2.78;;;21.10;33.80;;;;;;5057696;28;20131;-66
2023/01/21 08:29:26;;;;;;;3.38;2.75;;;21.10;33.70;;;;;;5057820;28;20127;-66
2023/01/21 08:31:54;;;;;;;2.63;2.40;;;21.20;33.70;;;;;;5058106;28;20082;-67
2023/01/21 08:34:21;;;;;;;3.13;2.38;;;21.20;33.70;;;;;;5058225;28;20090;-66
2023/01/21 08:36:48;;;;;;;3.65;3.00;;;21.20;33.70;;;;;;5057565;28;20132;-66
2023/01/21 08:39:15;;;;;;;3.85;2.78;;;21.20;33.60;;;;;;5057885;28;20168;-66
2023/01/21 08:41:43;;;;;;;4.72;3.17;;;21.20;33.60;;;;;;5057500;28;20041;-66
2023/01/21 08:44:10;;;;;;;2.55;2.35;;;21.20;33.60;;;;;;5058057;28;20132;-66
2023/01/21 08:46:37;;;;;;;3.33;2.70;;;21.20;33.60;;;;;;5056624;28;20055;-66
2023/01/21 08:49:05;;;;;;;3.72;2.80;;;21.20;33.50;;;;;;5056457;28;20400;-66
2023/01/21 08:51:32;;;;;;;2.80;2.42;;;21.20;33.50;;;;;;5055908;28;20055;-67
2023/01/21 08:54:00;;;;;;;4.00;3.13;;;21.20;33.40;;;;;;5056157;28;20052;-66
2023/01/21 08:56:27;;;;;;;3.15;2.60;;;21.20;33.50;;;;;;5057723;28;20124;-67
2023/01/21 08:58:56;;;;;;;3.28;2.97;;;21.20;33.40;;;;;;5057317;28;20160;-67
2023/01/21 09:01:24;;;;;;;2.60;2.38;;;21.30;33.40;;;;;;5057648;28;20055;-67
2023/01/21 09:03:59;;;;;;;3.45;2.92;;;21.30;33.40;;;;;;5057527;28;20049;-66
2023/01/21 09:06:28;;;;;;;5.82;3.35;;;21.30;33.40;;;;;;5057150;28;20127;-67
2023/01/21 09:08:56;;;;;;;3.13;2.80;;;21.30;33.40;;;;;;5056830;28;20045;-62
2023/01/21 09:11:23;;;;;;;3.00;2.70;;;21.30;33.30;;;;;;5055535;28;20144;-67
2023/01/21 09:13:51;;;;;;;3.83;3.08;;;21.30;33.30;;;;;;5055800;28;20124;-67
2023/01/21 09:16:21;;;;;;;5.97;2.92;;;21.30;33.30;;;;;;5057658;28;20075;-66
2023/01/21 09:18:49;;;;;;;3.47;2.85;;;21.30;33.20;;;;;;5056852;28;20048;-66
2023/01/21 09:21:16;;;;;;;3.92;3.17;;;21.30;33.20;;;;;;5055800;28;20110;-66
2023/01/21 09:23:43;;;;;;;4.70;3.22;;;21.30;33.20;;;;;;5056984;28;20057;-67
2023/01/21 09:26:19;;;;;;;3.53;2.95;;;21.40;33.20;;;;;;5057463;28;20045;-66
2023/01/21 09:28:52;;;;;;;3.28;2.65;;;21.30;33.10;;;;;;5057399;28;20059;-67
2023/01/21 09:31:22;;;;;;;4.55;3.15;;;21.30;33.10;;;;;;5056430;28;20076;-67
2023/01/21 09:33:52;;;;;;;3.33;2.95;;;21.40;33.10;;;;;;5056733;28;20041;-66
2023/01/21 09:36:22;;;;;;;3.72;3.03;;;21.40;33.10;;;;;;5057013;28;20600;-66
2023/01/21 09:38:50;;;;;;;3.90;3.15;;;21.40;33.00;;;;;;5038578;28;20076;-66
2023/01/21 09:41:34;;;;;;;5.53;3.33;;;21.40;33.00;;;;;;5056605;28;20045;-66
2023/01/21 09:44:31;;;;;;;3.22;2.92;;;21.40;33.00;;;;;;5056359;28;20112;-66
2023/01/21 09:47:23;;;;;;;5.03;3.38;;;21.40;32.90;;;;;;5056481;28;20199;-66
2023/01/21 09:49:59;;;;;;;4.90;3.45;;;21.50;33.00;;;;;;5056443;28;20579;-66
2023/01/21 09:52:43;;;;;;;4.80;3.58;;;21.40;32.90;;;;;;5056149;28;20049;-66
2023/01/21 09:55:16;;;;;;;3.35;3.00;;;21.50;32.90;;;;;;5055630;28;20049;-67
2023/01/21 09:58:15;;;;;;;4.75;3.78;;;21.50;32.90;;;;;;5056187;28;20193;-66
2023/01/21 10:01:06;;;;;;;4.32;3.50;;;21.50;32.80;;;;;;5056505;28;20104;-67
2023/01/21 10:04:12;;;;;;;3.83;3.03;;;21.50;32.80;;;;;;5055997;28;20060;-67
2023/01/21 10:06:50;;;;;;;3.97;2.97;;;21.50;32.70;;;;;;5056459;28;20447;-67
2023/01/21 10:09:53;;;;;;;5.40;3.67;;;21.50;32.70;;;;;;5056357;28;20049;-66
2023/01/21 10:12:53;;;;;;;3.92;3.28;;;21.50;33.30;;;;;;5055383;28;20457;-66
2023/01/21 10:15:43;;;;;;;4.00;2.90;;;21.60;32.70;;;;;;5056036;28;20456;-67
2023/01/21 10:18:18;;;;;;;3.63;2.95;;;21.50;32.60;;;;;;5056150;28;20139;-66
2023/01/21 10:20:54;;;;;;;4.10;3.20;;;21.60;32.60;;;;;;5056009;28;20433;-66
2023/01/21 10:23:29;;;;;;;4.82;3.47;;;21.60;32.60;;;;;;5056475;28;20045;-67
2023/01/21 10:26:00;;;;;;;3.83;3.03;;;21.70;32.60;;;;;;5056170;28;20071;-66
2023/01/21 10:28:29;;;;;;;4.32;3.20;;;21.60;32.50;;;;;;5056202;28;20465;-67
2023/01/21 10:31:05;;;;;;;3.67;2.90;;;21.70;32.60;;;;;;5056294;28;20077;-67
2023/01/21 10:33:33;;;;;;;4.82;3.40;;;21.70;32.50;;;;;;5054995;28;20044;-66
2023/01/21 10:36:27;;;;;;;4.45;3.03;;;21.70;32.60;;;;;;5056322;28;20116;-66
2023/01/21 10:39:21;;;;;;;4.07;3.17;;;21.70;32.50;;;;;;5055497;28;20481;-67
2023/01/21 10:42:04;;;;;;;4.43;3.17;;;21.70;32.50;;;;;;5056319;28;20045;-66
2023/01/21 10:44:56;;;;;;;5.93;3.58;;;21.70;32.50;;;;;;5056091;28;20087;-67
2023/01/21 10:47:56;;;;;;;4.03;3.08;;;21.70;32.50;;;;;;5054827;28;20144;-67
2023/01/21 10:50:47;;;;;;;4.20;3.25;;;21.70;32.50;;;;;;5055724;28;20083;-67
2023/01/21 10:53:33;;;;;;;;;;;21.70;32.50;;;;;;5056103;28;20057;-66
2023/01/21 10:56:16;;;;;;;3.00;2.70;;;21.70;32.50;;;;;;5054562;28;19920;-67
2023/01/21 10:59:05;;;;;;;3.78;3.30;;;21.70;32.50;;;;;;5055918;28;20091;-67
2023/01/21 11:01:38;;;;;;;3.70;2.87;;;21.70;32.50;;;;;;5055807;28;20051;-67
2023/01/21 11:04:17;;;;;;;2.97;2.67;;;21.70;32.50;;;;;;5055794;28;20551;-67
2023/01/21 11:06:49;;;;;;;3.38;2.95;;;21.80;32.50;;;;;;5055017;28;20084;-66
2023/01/21 11:09:16;;;;;;;3.25;2.83;;;21.70;32.50;;;;;;5055360;28;20135;-66
2023/01/21 11:11:45;;;;;;;4.22;2.97;;;21.70;32.50;;;;;;5055232;28;20096;-66
2023/01/21 11:14:12;;;;;;;6.35;3.30;;;21.70;32.50;;;;;;5055730;28;20063;-66
2023/01/21 11:16:47;;;;;;;4.15;2.83;;;21.70;32.40;;;;;;5058803;28;20045;-66
2023/01/21 11:19:32;;;;;;;4.10;3.25;;;21.80;32.50;;;;;;5058781;28;20079;-66
2023/01/21 11:22:05;;;;;;;3.53;3.10;;;21.70;32.50;;;;;;5059345;28;20485;-66
2023/01/21 11:24:42;;;;;;;4.70;3.22;;;21.70;32.50;;;;;;5059973;28;20135;-66
2023/01/21 11:27:38;;;;;;;4.30;3.05;;;21.80;32.50;;;;;;5057707;28;20053;-67
2023/01/21 11:30:26;;;;;;;4.45;3.45;;;21.80;32.50;;;;;;5058796;28;20569;-66
2023/01/21 11:33:25;;;;;;;4.22;3.08;;;21.80;33.00;;;;;;5058022;28;20048;-67
2023/01/21 11:35:54;;;;;;;4.45;2.78;;;21.80;32.50;;;;;;5059279;28;20136;-66
2023/01/21 11:38:34;;;;;;;4.07;2.80;;;21.80;32.50;;;;;;5058875;28;20552;-66
2023/01/21 11:41:19;;;;;;;3.33;2.85;;;21.80;32.40;;;;;;5059012;28;20049;-67
2023/01/21 11:43:51;;;;;;;4.38;3.42;;;21.80;32.40;;;;;;5058988;28;20389;-66
2023/01/21 11:46:38;;;;;;;3.30;2.80;;;21.80;32.40;;;;;;5059023;28;20045;-66
2023/01/21 11:49:19;;;;;;;3.53;3.22;;;21.80;32.40;;;;;;5057518;28;20048;-66
2023/01/21 11:51:46;;;;;;;3.33;2.83;;;21.80;32.40;;;;;;5058757;28;20596;-66
2023/01/21 11:54:17;;;;;;;2.83;2.58;;;21.80;32.40;;;;;;5058480;28;20049;-66
2023/01/21 11:57:02;;;;;;;3.80;3.00;;;21.80;32.40;;;;;;5058981;28;20092;-67
2023/01/21 11:59:35;;;;;;;2.92;2.65;;;21.80;32.40;;;;;;5057249;28;20124;-67
2023/01/21 12:02:14;;;;;;;4.95;3.40;;;21.90;32.40;;;;;;5058654;28;20049;-63
2023/01/21 12:04:46;;;;;;;4.32;3.10;;;21.80;32.40;;;;;;5058856;28;20049;-67
2023/01/21 12:07:24;;;;;;;3.42;2.85;;;21.90;32.40;;;;;;5058165;28;20048;-67
2023/01/21 12:10:01;;;;;;;3.33;2.78;;;21.90;32.40;;;;;;5058619;28;20051;-66
2023/01/21 12:13:05;;;;;;;3.47;2.67;;;21.90;32.40;;;;;;5056811;28;20044;-67
2023/01/21 12:16:12;;;;;;;4.53;3.28;;;21.90;32.30;;;;;;5057170;28;20049;-66
2023/01/21 12:19:15;;;;;;;5.07;3.47;;;21.90;32.30;;;;;;5056937;28;20045;-67
2023/01/21 12:22:09;;;;;;;3.70;2.97;;;21.90;32.30;;;;;;5057624;28;20567;-67
2023/01/21 12:25:06;;;;;;;4.45;3.55;;;21.90;32.30;;;;;;5057937;28;20064;-67
2023/01/21 12:27:50;;;;;;;4.50;3.22;;;21.90;32.30;;;;;;5058085;28;20080;-67
2023/01/21 12:30:51;;;;;;;3.80;3.13;;;21.90;32.30;;;;;;5057787;28;20124;-66
2023/01/21 12:33:45;;;;;;;3.28;2.95;;;21.90;32.30;;;;;;5056774;28;20134;-66
2023/01/21 12:36:23;;;;;;;3.63;2.90;;;21.90;32.30;;;;;;5058466;28;20045;-67
2023/01/21 12:39:18;;;;;;;4.88;3.22;;;21.90;32.30;;;;;;5056455;28;20055;-67
2023/01/21 12:41:55;;;;;;;4.38;3.30;;;21.90;32.30;;;;;;5057806;28;20461;-66
2023/01/21 12:44:34;;;;;;;4.03;3.00;;;21.90;32.30;;;;;;5057827;28;20048;-66
2023/01/21 12:47:10;;;;;;;3.63;2.70;;;21.90;32.30;;;;;;5057757;28;20044;-67
2023/01/21 12:50:15;;;;;;;3.90;2.88;;;21.90;32.30;;;;;;5057453;28;20127;-67
2023/01/21 12:53:22;;;;;;;3.42;2.83;;;21.90;32.30;;;;;;5056776;28;20100;-67
2023/01/21 12:56:22;;;;;;;4.63;2.78;;;21.90;32.30;;;;;;5042895;28;20128;-67
2023/01/21 12:59:10;;;;;;;4.20;2.85;;;21.90;32.30;;;;;;5056982;28;20049;-67
2023/01/21 13:01:54;;;;;;;4.78;3.10;;;21.90;32.30;;;;;;5057650;28;20128;-67
2023/01/21 13:04:43;;;;;;;3.55;2.83;;;22.00;32.30;;;;;;5056147;28;20408;-66
2023/01/21 13:07:50;;;;;;;4.35;3.05;;;21.90;32.30;;;;;;5057400;28;20051;-66
2023/01/21 13:10:34;;;;;;;4.20;3.05;;;22.00;32.30;;;;;;5056949;28;20045;-67
2023/01/21 13:13:18;;;;;;;4.68;2.78;;;22.00;32.30;;;;;;5056872;28;20077;-67
2023/01/21 13:16:04;;;;;;;2.80;2.42;;;22.00;32.30;;;;;;5057227;28;20049;-62
2023/01/21 13:18:35;;;;;;;5.45;3.90;;;22.00;32.20;;;;;;5057368;28;20409;-67
2023/01/21 13:21:33;;;;;;;2.70;2.45;;;22.00;32.20;;;;;;5055974;28;20055;-66
2023/01/21 13:24:40;;;;;;;4.28;2.88;;;22.00;32.20;;;;;;5055875;28;20052;-67